Time;durP1;ratioP1;P1;durP2;ratioP2;P2;SDS_P1;SDS_P2;PMS_P1;PMS_P2;Temp;Humidity;BMP_temperature;BMP_pressure;BME280_temperature;BME280_humidity;BME280_pressure;Samples;Min_cycle;Max_cycle;Signal;HPM_P1;HPM_P2
2023/01/29 00:00:28;;;;;;;;;;;;;;;3.96;65.43;99837.03;5091915;28;19923;-36
2023/01/29 00:02:53;;;;;;;;;;;;;;;3.75;65.87;99833.03;5091801;28;20011;-35
2023/01/29 00:05:18;;;;;;;;;;;;;;;3.48;67.12;99829.59;5091101;28;20007;-35
2023/01/29 00:07:44;;;;;;;;;;;;;;;3.71;66.36;99831.66;5090565;28;19919;-36
2023/01/29 00:10:09;;;;;;;;;;;;;;;3.86;66.07;99842.44;5091099;28;19912;-36
2023/01/29 00:12:34;;;;;;;;;;;;;;;4.09;65.04;99834.78;5091384;28;19919;-36
2023/01/29 00:15:00;;;;;;;;;;;;;;;4.31;64.08;99844.75;5091478;28;19991;-36
2023/01/29 00:17:26;;;;;;;;;;;;;;;4.27;64.02;99843.41;5091339;28;19912;-36
2023/01/29 00:19:51;;;;;;;;;;;;;;;4.44;63.36;99840.84;5090755;28;19924;-42
2023/01/29 00:22:16;;;;;;;;;;;;;;;4.25;63.76;99849.84;5091716;28;20383;-42
2023/01/29 00:24:43;;;;;;;;;;;;;;;4.36;63.47;99843.44;5091715;28;19912;-42
2023/01/29 00:27:08;;;;;;;;;;;;;;;4.50;63.26;99845.47;5091725;28;19912;-42
2023/01/29 00:29:34;;;;;;;;;;;;;;;4.22;64.13;99850.97;5091518;28;19963;-42
2023/01/29 00:31:59;;;;;;;;;;;;;;;4.38;63.60;99858.13;5091610;28;19912;-41
2023/01/29 00:34:24;;;;;;;;;;;;;;;4.03;64.51;99859.94;5091362;28;20320;-42
2023/01/29 00:36:49;;;;;;;;;;;;;;;4.07;64.94;99871.84;5091322;28;19912;-42
2023/01/29 00:39:15;;;;;;;;;;;;;;;3.55;66.16;99863.16;5091546;28;19947;-42
2023/01/29 00:47:29;;;;;;;;;;;;;;;4.09;64.96;99864.59;5091863;28;19989;-42
2023/01/29 00:49:53;;;;;;;;;;;;;;;3.56;66.26;99863.00;5091172;28;19919;-42
2023/01/29 00:52:25;;;;;;;;;;;;;;;3.76;66.10;99870.69;5091313;28;19912;-42
2023/01/29 00:54:54;;;;;;;;;;;;;;;3.88;65.96;99870.28;5091248;28;19947;-42
2023/01/29 00:57:19;;;;;;;;;;;;;;;3.67;65.82;99861.91;5091207;28;19934;-42
2023/01/29 00:59:45;;;;;;;;;;;;;;;3.94;65.25;99866.19;5091110;28;20356;-42
2023/01/29 01:04:54;;;;;;;;;;;;;;;4.02;64.67;99862.75;5091056;28;20006;-42
2023/01/29 01:07:20;;;;;;;;;;;;;;;3.59;66.11;99859.25;5090956;28;19999;-42
2023/01/29 01:12:52;;;;;;;;;;;;;;;3.66;65.67;99860.28;5088447;28;19962;-42
2023/01/29 01:15:18;;;;;;;;;;;;;;;3.52;67.06;99859.88;5088493;28;19920;-42
2023/01/29 01:17:43;;;;;;;;;;;;;;;3.47;67.28;99862.13;5089282;28;19912;-42
2023/01/29 01:20:09;;;;;;;;;;;;;;;2.96;69.04;99861.09;5090592;28;20410;-43
2023/01/29 01:22:34;;;;;;;;;;;;;;;2.87;69.28;99867.25;5090613;28;20391;-41
2023/01/29 01:25:00;;;;;;;;;;;;;;;3.17;68.73;99860.75;5090872;28;20006;-41
2023/01/29 01:27:25;;;;;;;;;;;;;;;3.29;68.73;99867.44;5090906;28;19912;-41
2023/01/29 01:29:50;;;;;;;;;;;;;;;3.23;68.62;99869.84;5090874;28;19969;-41
2023/01/29 01:32:16;;;;;;;;;;;;;;;3.59;67.75;99872.41;5091021;28;19919;-41
2023/01/29 01:34:44;;;;;;;;;;;;;;;3.72;66.97;99868.34;5090872;28;20387;-43
2023/01/29 01:37:09;;;;;;;;;;;;;;;3.79;66.30;99873.84;5091493;28;19912;-41
2023/01/29 01:39:34;;;;;;;;;;;;;;;4.01;65.80;99871.63;5091339;28;20521;-42
2023/01/29 01:41:59;;;;;;;;;;;;;;;4.17;65.22;99868.22;5091284;28;19951;-42
2023/01/29 01:44:43;;;;;;;;;;;;;;;3.89;66.11;99869.28;5091256;28;19976;-43
2023/01/29 01:47:09;;;;;;;;;;;;;;;3.90;65.96;99865.66;5091583;28;19919;-43
2023/01/29 01:49:34;;;;;;;;;;;;;;;3.99;66.14;99868.34;5091004;28;19912;-41
2023/01/29 01:51:59;;;;;;;;;;;;;;;4.14;65.05;99866.75;5091070;28;19969;-41
2023/01/29 01:54:27;;;;;;;;;;;;;;;3.75;66.59;99867.25;5091226;28;19912;-41
2023/01/29 01:56:55;;;;;;;;;;;;;;;3.80;66.13;99874.66;5091435;28;20016;-43
2023/01/29 01:59:21;;;;;;;;;;;;;;;3.64;66.47;99868.31;5091046;28;20363;-42
2023/01/29 02:01:49;;;;;;;;;;;;;;;3.35;67.89;99863.38;5091128;28;20010;-42
2023/01/29 02:10:04;;;;;;;;;;;;;;;4.07;65.55;99869.22;5094825;28;19934;-42
2023/01/29 02:12:30;;;;;;;;;;;;;;;3.95;66.50;99875.72;5094646;28;19912;-42
2023/01/29 02:14:55;;;;;;;;;;;;;;;3.90;66.10;99872.72;5094658;28;19999;-41
2023/01/29 02:17:21;;;;;;;;;;;;;;;3.73;66.88;99869.19;5094834;28;19912;-41
2023/01/29 02:20:04;;;;;;;;;;;;;;;4.16;65.66;99885.03;5092688;28;19981;-42
2023/01/29 02:22:35;;;;;;;;;;;;;;;4.04;66.06;99884.50;5094606;28;19912;-41
2023/01/29 02:25:10;;;;;;;;;;;;;;;3.72;66.61;99883.34;5094249;28;19919;-43
2023/01/29 02:27:47;;;;;;;;;;;;;;;3.89;66.73;99884.25;5094744;28;19912;-43
2023/01/29 02:30:15;;;;;;;;;;;;;;;3.86;66.76;99889.81;5094351;28;19934;-43
2023/01/29 02:32:53;;;;;;;;;;;;;;;4.18;65.65;99891.78;5094593;28;19947;-42
2023/01/29 02:35:28;;;;;;;;;;;;;;;3.95;65.95;99893.34;5094253;28;19923;-43
2023/01/29 02:37:53;;;;;;;;;;;;;;;3.87;66.71;99892.31;5094148;28;20010;-43
2023/01/29 02:40:22;;;;;;;;;;;;;;;3.83;67.34;99892.78;5093741;28;20011;-42
2023/01/29 02:42:55;;;;;;;;;;;;;;;4.30;65.92;99897.59;5093984;28;20013;-42
2023/01/29 02:45:41;;;;;;;;;;;;;;;4.41;65.69;99904.38;5093603;28;20317;-42
2023/01/29 02:48:09;;;;;;;;;;;;;;;4.49;65.35;99901.78;5093373;28;19918;-41
2023/01/29 02:50:43;;;;;;;;;;;;;;;4.22;66.26;99898.38;5093786;28;19912;-43
2023/01/29 02:53:09;;;;;;;;;;;;;;;4.09;66.94;99898.00;5093514;28;20011;-42
2023/01/29 02:55:37;;;;;;;;;;;;;;;4.03;67.14;99904.72;5094075;28;19939;-43
2023/01/29 02:58:06;;;;;;;;;;;;;;;4.16;66.99;99906.94;5093446;28;19951;-43
2023/01/29 03:00:34;;;;;;;;;;;;;;;4.28;66.36;99903.03;5093379;28;20394;-43
2023/01/29 03:03:07;;;;;;;;;;;;;;;4.31;66.25;99896.63;5093330;28;19912;-43
2023/01/29 03:05:36;;;;;;;;;;;;;;;4.24;67.12;99906.94;5093458;28;20009;-43
2023/01/29 03:08:05;;;;;;;;;;;;;;;4.18;67.33;99910.22;5093567;28;19912;-43
2023/01/29 03:10:36;;;;;;;;;;;;;;;4.17;67.50;99913.84;5093367;28;19919;-43
2023/01/29 03:13:12;;;;;;;;;;;;;;;4.10;67.82;99918.91;5093448;28;19912;-43
2023/01/29 03:15:41;;;;;;;;;;;;;;;4.03;68.03;99909.16;5092142;28;19938;-41
2023/01/29 03:18:06;;;;;;;;;;;;;;;4.08;68.07;99917.44;5093363;28;20375;-43
2023/01/29 03:20:34;;;;;;;;;;;;;;;4.01;68.07;99919.03;5093049;28;19927;-43
2023/01/29 03:23:02;;;;;;;;;;;;;;;4.09;68.44;99919.06;5093655;28;19946;-43
2023/01/29 03:34:06;;;;;;;;;;;;;;;3.67;68.80;99932.97;5093249;28;20248;-43
2023/01/29 03:36:37;;;;;;;;;;;;;;;3.50;69.39;99927.63;5092118;28;19935;-43
2023/01/29 03:39:06;;;;;;;;;;;;;;;3.70;68.59;99930.03;5093404;28;19916;-43
2023/01/29 03:41:37;;;;;;;;;;;;;;;3.80;68.32;99930.75;5093079;28;20284;-42
2023/01/29 03:44:20;;;;;;;;;;;;;;;4.04;68.02;99934.53;5092743;28;19919;-40
2023/01/29 03:46:51;;;;;;;;;;;;;;;4.03;67.47;99931.06;5093138;28;19912;-41
2023/01/29 03:49:31;;;;;;;;;;;;;;;3.73;68.60;99942.88;5092702;28;19912;-41
2023/01/29 03:52:11;;;;;;;;;;;;;;;4.07;67.24;99931.56;5092112;28;20425;-41
2023/01/29 03:54:42;;;;;;;;;;;;;;;3.70;68.36;99935.31;5092756;28;20018;-43
2023/01/29 03:57:14;;;;;;;;;;;;;;;4.01;67.48;99951.47;5093071;28;20342;-41
2023/01/29 03:59:45;;;;;;;;;;;;;;;4.16;67.02;99941.16;5092614;28;19916;-43
2023/01/29 04:02:14;;;;;;;;;;;;;;;3.66;68.59;99947.13;5092792;28;19916;-41
2023/01/29 04:04:42;;;;;;;;;;;;;;;3.57;69.38;99948.03;5092748;28;19912;-41
2023/01/29 04:07:12;;;;;;;;;;;;;;;3.70;69.57;99951.09;5092522;28;19973;-41
2023/01/29 04:09:41;;;;;;;;;;;;;;;3.63;69.33;99953.50;5092484;28;19918;-41
2023/01/29 04:12:08;;;;;;;;;;;;;;;3.90;68.67;99955.19;5092490;28;19912;-41
2023/01/29 04:14:33;;;;;;;;;;;;;;;3.81;68.60;99958.75;5092492;28;20003;-41
2023/01/29 04:17:00;;;;;;;;;;;;;;;3.35;70.89;99965.97;5092132;28;19944;-41
2023/01/29 04:19:26;;;;;;;;;;;;;;;3.50;70.18;99972.34;5092155;28;19924;-41
2023/01/29 04:21:59;;;;;;;;;;;;;;;3.50;71.13;99980.25;5093056;28;20003;-41
2023/01/29 04:24:24;;;;;;;;;;;;;;;3.57;70.86;99966.47;5092345;28;19919;-41
2023/01/29 04:27:04;;;;;;;;;;;;;;;3.60;70.70;99972.25;5092181;28;19912;-41
2023/01/29 04:29:48;;;;;;;;;;;;;;;3.75;70.32;99980.44;5091577;28;20352;-41
2023/01/29 04:32:17;;;;;;;;;;;;;;;3.92;70.41;99981.34;5091881;28;19947;-41
2023/01/29 04:35:01;;;;;;;;;;;;;;;3.64;70.95;99972.78;5092077;28;19991;-41
2023/01/29 04:37:41;;;;;;;;;;;;;;;3.55;71.45;99974.50;5092023;28;19969;-40
2023/01/29 04:40:06;;;;;;;;;;;;;;;3.88;70.75;99980.00;5091834;28;20023;-41
2023/01/29 04:42:50;;;;;;;;;;;;;;;3.78;71.22;99982.75;5092153;28;20014;-41
2023/01/29 04:45:18;;;;;;;;;;;;;;;3.69;71.67;99983.66;5091808;28;19912;-41
2023/01/29 04:47:50;;;;;;;;;;;;;;;3.91;71.46;99983.16;5091562;28;19912;-41
2023/01/29 04:50:15;;;;;;;;;;;;;;;4.24;70.04;99991.25;5091729;28;19912;-42
2023/01/29 04:52:41;;;;;;;;;;;;;;;3.83;71.92;99992.84;5083929;28;19969;-40
2023/01/29 04:55:09;;;;;;;;;;;;;;;3.44;74.12;99991.34;5071147;28;19912;-41
2023/01/29 04:57:45;;;;;;;;;;;;;;;3.51;74.43;99997.66;5069959;28;19912;-41
2023/01/29 05:00:31;;;;;;;;;;;;;;;3.69;74.18;99997.66;5071123;28;19960;-41
2023/01/29 05:02:58;;;;;;;;;;;;;;;3.58;74.75;99994.41;5070881;28;19981;-42
2023/01/29 05:05:23;;;;;;;;;;;;;;;3.38;75.20;99997.22;5071658;28;19912;-48
2023/01/29 05:07:48;;;;;;;;;;;;;;;3.34;75.76;100006.41;5071401;28;20338;-48
2023/01/29 05:10:15;;;;;;;;;;;;;;;3.71;74.96;100010.66;5070928;28;19913;-48
2023/01/29 05:12:42;;;;;;;;;;;;;;;2.90;77.34;100012.34;5071199;28;19994;-47
2023/01/29 05:15:11;;;;;;;;;;;;;;;3.10;77.45;100012.22;5071430;28;20047;-48
2023/01/29 05:17:36;;;;;;;;;;;;;;;3.05;77.94;100011.88;5071379;28;19913;-48
2023/01/29 05:20:02;;;;;;;;;;;;;;;3.22;77.57;100010.22;5071227;28;20416;-48
2023/01/29 05:22:28;;;;;;;;;;;;;;;2.99;78.19;100007.19;5071318;28;19936;-48
2023/01/29 05:24:53;;;;;;;;;;;;;;;3.24;76.83;100005.66;5071279;28;20457;-48
2023/01/29 05:30:05;;;;;;;;;;;;;;;3.74;75.75;100014.81;5071537;28;20324;-48
2023/01/29 05:32:30;;;;;;;;;;;;;;;3.74;76.04;100015.63;5071414;28;19912;-48
2023/01/29 05:34:55;;;;;;;;;;;;;;;3.66;75.44;100019.00;5086061;28;19924;-49
2023/01/29 05:37:21;;;;;;;;;;;;;;;3.55;76.10;100016.63;5089558;28;20314;-48
2023/01/29 05:39:46;;;;;;;;;;;;;;;3.49;76.39;100019.84;5091214;28;20089;-48
2023/01/29 05:42:11;;;;;;;;;;;;;;;3.86;75.11;100027.56;5094672;28;19918;-48
2023/01/29 05:44:37;;;;;;;;;;;;;;;3.71;75.35;100032.56;5095208;28;20364;-48
2023/01/29 05:47:02;;;;;;;;;;;;;;;3.72;74.96;100026.28;5095330;28;19999;-48
2023/01/29 05:49:27;;;;;;;;;;;;;;;3.78;74.68;100030.13;5095052;28;20364;-48
2023/01/29 05:51:53;;;;;;;;;;;;;;;3.83;74.31;100030.50;5095375;28;19915;-48
2023/01/29 05:54:18;;;;;;;;;;;;;;;3.94;74.11;100039.13;5095054;28;19916;-48
2023/01/29 05:56:43;;;;;;;;;;;;;;;3.48;75.37;100037.47;5095083;28;19947;-49
2023/01/29 05:59:08;;;;;;;;;;;;;;;3.46;75.60;100042.00;5094789;28;19939;-48
2023/01/29 06:01:34;;;;;;;;;;;;;;;3.68;74.39;100045.19;5095019;28;19942;-48
2023/01/29 06:03:59;;;;;;;;;;;;;;;3.71;74.58;100048.34;5094654;28;19919;-48
2023/01/29 06:06:24;;;;;;;;;;;;;;;3.94;74.44;100057.56;5094504;28;20406;-48
2023/01/29 06:08:50;;;;;;;;;;;;;;;3.92;73.39;100048.03;5093168;28;19951;-48
2023/01/29 06:11:17;;;;;;;;;;;;;;;3.89;73.61;100047.50;5094664;28;19973;-48
2023/01/29 06:13:42;;;;;;;;;;;;;;;3.69;73.86;100062.63;5094201;28;19920;-48
2023/01/29 06:16:08;;;;;;;;;;;;;;;3.73;74.01;100061.34;5094024;28;19924;-48
2023/01/29 06:18:37;;;;;;;;;;;;;;;3.72;73.82;100059.69;5094000;28;19928;-48
2023/01/29 06:21:03;;;;;;;;;;;;;;;3.82;73.97;100060.44;5094379;28;19930;-48
2023/01/29 06:23:29;;;;;;;;;;;;;;;3.50;74.02;100069.72;5094121;28;19931;-48
2023/01/29 06:26:01;;;;;;;;;;;;;;;3.89;84.09;100073.84;5094420;28;20306;-48
2023/01/29 06:28:26;;;;;;;;;;;;;;;6.27;83.37;100074.69;5094215;28;19912;-48
2023/01/29 06:30:52;;;;;;;;;;;;;;;5.65;68.91;100078.63;5094224;28;19926;-48
2023/01/29 06:33:17;;;;;;;;;;;;;;;4.81;70.21;100082.97;5093962;28;20002;-48
2023/01/29 06:35:42;;;;;;;;;;;;;;;4.81;70.30;100080.34;5094049;28;19912;-48
2023/01/29 06:38:08;;;;;;;;;;;;;;;4.38;72.09;100086.53;5093943;28;19916;-48
2023/01/29 06:40:33;;;;;;;;;;;;;;;4.23;72.40;100083.66;5093566;28;19919;-48
2023/01/29 06:43:01;;;;;;;;;;;;;;;4.40;71.42;100081.91;5093208;28;20011;-48
2023/01/29 06:45:26;;;;;;;;;;;;;;;4.45;70.47;100085.75;5093315;28;20029;-47
2023/01/29 06:47:52;;;;;;;;;;;;;;;4.37;71.26;100090.16;5093240;28;20010;-47
2023/01/29 06:50:17;;;;;;;;;;;;;;;3.95;72.12;100085.56;5093310;28;19912;-47
2023/01/29 06:52:42;;;;;;;;;;;;;;;3.99;70.70;100095.63;5093426;28;19919;-48
2023/01/29 06:55:08;;;;;;;;;;;;;;;3.86;71.41;100097.81;5093215;28;19977;-42
2023/01/29 06:57:33;;;;;;;;;;;;;;;4.15;70.53;100102.84;5093127;28;19919;-43
2023/01/29 06:59:58;;;;;;;;;;;;;;;3.31;71.47;100031.22;5092933;28;19999;-42
2023/01/29 07:02:23;;;;;;;;;;;;;;;4.05;70.93;100102.09;5093437;28;19923;-42
2023/01/29 07:04:49;;;;;;;;;;;;;;;4.11;71.33;100109.38;5093053;28;19993;-42
2023/01/29 07:07:14;;;;;;;;;;;;;;;4.33;71.04;100108.06;5093337;28;19912;-42
2023/01/29 07:09:40;;;;;;;;;;;;;;;4.05;71.59;100108.19;5078389;28;19946;-42
2023/01/29 07:12:05;;;;;;;;;;;;;;;4.45;70.05;100109.47;5072511;28;19919;-42
2023/01/29 07:14:30;;;;;;;;;;;;;;;4.45;70.55;100106.00;5072492;28;19919;-42
2023/01/29 07:16:56;;;;;;;;;;;;;;;4.55;70.90;100117.28;5072305;28;20019;-42
2023/01/29 07:19:22;;;;;;;;;;;;;;;4.41;70.81;100116.03;5072150;28;20027;-42
2023/01/29 07:21:48;;;;;;;;;;;;;;;4.69;70.12;100119.34;5072294;28;20253;-42
2023/01/29 07:24:13;;;;;;;;;;;;;;;4.54;70.91;100120.09;5072592;28;19946;-41
2023/01/29 07:26:38;;;;;;;;;;;;;;;4.72;70.49;100117.38;5072355;28;19917;-42
2023/01/29 07:29:04;;;;;;;;;;;;;;;4.90;70.07;100123.41;5072412;28;19969;-43
2023/01/29 07:31:29;;;;;;;;;;;;;;;4.57;71.00;100114.47;5072211;28;19912;-42
2023/01/29 07:33:54;;;;;;;;;;;;;;;4.82;70.58;100120.75;5072737;28;19913;-42
2023/01/29 07:36:20;;;;;;;;;;;;;;;4.45;71.81;100125.28;5086178;28;19930;-42
2023/01/29 07:38:48;;;;;;;;;;;;;;;4.58;70.62;100111.69;5092431;28;19912;-42
2023/01/29 07:41:13;;;;;;;;;;;;;;;4.53;71.05;100113.97;5092651;28;19912;-42
2023/01/29 07:43:38;;;;;;;;;;;;;;;4.46;71.35;100124.31;5092399;28;19930;-42
2023/01/29 07:46:04;;;;;;;;;;;;;;;4.76;69.80;100123.97;5092252;28;20367;-42
2023/01/29 07:48:29;;;;;;;;;;;;;;;4.75;70.23;100117.06;5092065;28;19912;-42
2023/01/29 07:50:55;;;;;;;;;;;;;;;4.68;69.88;100117.69;5092075;28;19913;-42
2023/01/29 07:53:20;;;;;;;;;;;;;;;4.79;69.75;100127.13;5090716;28;19999;-42
2023/01/29 07:55:45;;;;;;;;;;;;;;;4.84;69.16;100124.06;5092211;28;19916;-42
2023/01/29 07:58:11;;;;;;;;;;;;;;;5.02;69.19;100126.59;5092195;28;20374;-42
2023/01/29 08:00:36;;;;;;;;;;;;;;;5.22;69.64;100135.09;5091639;28;19938;-42
2023/01/29 08:03:06;;;;;;;;;;;;;;;4.78;70.49;100129.94;5091264;28;19968;-42
2023/01/29 08:05:32;;;;;;;;;;;;;;;5.08;70.45;100134.72;5091851;28;19969;-42
2023/01/29 08:07:57;;;;;;;;;;;;;;;4.99;70.48;100140.09;5091988;28;19916;-42
2023/01/29 08:10:23;;;;;;;;;;;;;;;5.13;70.96;100147.44;5090506;28;20007;-42
2023/01/29 08:12:52;;;;;;;;;;;;;;;5.19;70.29;100145.97;5091801;28;19916;-41
2023/01/29 08:15:18;;;;;;;;;;;;;;;5.39;69.93;100138.63;5091843;28;19962;-42
2023/01/29 08:17:43;;;;;;;;;;;;;;;5.45;69.89;100152.00;5091440;28;19955;-42
2023/01/29 08:20:09;;;;;;;;;;;;;;;5.46;70.06;100152.81;5091903;28;19935;-42
2023/01/29 08:22:34;;;;;;;;;;;;;;;4.93;70.95;100149.50;5091461;28;19977;-42
2023/01/29 08:24:59;;;;;;;;;;;;;;;5.27;71.07;100148.63;5091757;28;19915;-42
2023/01/29 08:27:24;;;;;;;;;;;;;;;5.32;70.90;100149.00;5091463;28;20028;-43
2023/01/29 08:29:50;;;;;;;;;;;;;;;5.60;71.57;100154.03;5091608;28;19919;-40
2023/01/29 08:32:15;;;;;;;;;;;;;;;5.48;69.96;100153.47;5091673;28;20290;-41
2023/01/29 08:34:40;;;;;;;;;;;;;;;5.42;70.11;100148.84;5091162;28;19912;-41
2023/01/29 08:37:05;;;;;;;;;;;;;;;5.30;70.05;100153.59;5091461;28;20376;-42
2023/01/29 08:39:31;;;;;;;;;;;;;;;5.56;70.82;100160.59;5094579;28;19964;-41
2023/01/29 08:41:56;;;;;;;;;;;;;;;5.54;70.43;100158.16;5102987;28;19919;-41
2023/01/29 08:44:21;;;;;;;;;;;;;;;5.54;69.21;100160.78;5111978;28;19912;-41
2023/01/29 08:46:47;;;;;;;;;;;;;;;5.31;69.54;100170.25;5112279;28;19922;-42
2023/01/29 08:49:12;;;;;;;;;;;;;;;5.02;71.15;100166.97;5111894;28;19943;-42
2023/01/29 08:51:37;;;;;;;;;;;;;;;5.37;72.56;100170.47;5112511;28;20355;-43
2023/01/29 08:54:02;;;;;;;;;;;;;;;5.37;70.64;100166.97;5103082;28;19916;-41
2023/01/29 08:56:28;;;;;;;;;;;;;;;5.63;70.63;100169.53;5108394;28;19916;-41
2023/01/29 08:58:53;;;;;;;;;;;;;;;5.45;70.61;100167.84;5105646;28;20430;-42
2023/01/29 09:01:18;;;;;;;;;;;;;;;5.54;70.37;100168.72;5097910;28;19920;-41
2023/01/29 09:03:44;;;;;;;;;;;;;;;5.90;69.41;100165.78;5092331;28;19916;-41
2023/01/29 09:06:10;;;;;;;;;;;;;;;5.96;68.60;100165.19;5091422;28;19972;-43
2023/01/29 09:08:35;;;;;;;;;;;;;;;6.02;68.97;100166.38;5091161;28;20006;-41
2023/01/29 09:11:01;;;;;;;;;;;;;;;6.30;67.43;100168.69;5091851;28;19977;-42
2023/01/29 09:13:26;;;;;;;;;;;;;;;6.11;68.37;100168.03;5091775;28;19991;-42
2023/01/29 09:15:51;;;;;;;;;;;;;;;6.16;68.63;100167.53;5091170;28;20283;-36
2023/01/29 09:18:17;;;;;;;;;;;;;;;6.00;69.38;100171.00;5090742;28;19912;-37
2023/01/29 09:20:42;;;;;;;;;;;;;;;6.07;68.88;100162.25;5091024;28;19916;-40
2023/01/29 09:23:08;;;;;;;;;;;;;;;5.79;69.47;100169.59;5091020;28;19916;-42
2023/01/29 09:25:33;;;;;;;;;;;;;;;5.74;69.87;100161.31;5091032;28;19982;-42
2023/01/29 09:27:59;;;;;;;;;;;;;;;5.99;69.72;100166.69;5091105;28;20303;-41
2023/01/29 09:30:24;;;;;;;;;;;;;;;5.97;69.67;100158.09;5090968;28;19912;-42
2023/01/29 09:32:49;;;;;;;;;;;;;;;5.92;70.08;100163.84;5090836;28;19912;-42
2023/01/29 09:35:14;;;;;;;;;;;;;;;5.52;71.28;100160.13;5090968;28;19995;-42
2023/01/29 09:37:40;;;;;;;;;;;;;;;5.27;72.15;100156.53;5090925;28;20429;-43
2023/01/29 09:40:05;;;;;;;;;;;;;;;5.44;71.14;100158.25;5090951;28;19917;-41
2023/01/29 09:42:42;;;;;;;;;;;;;;;5.51;70.61;100158.47;5090775;28;20368;-43
2023/01/29 09:45:14;;;;;;;;;;;;;;;5.59;70.47;100152.38;5091218;28;19912;-42
2023/01/29 09:47:39;;;;;;;;;;;;;;;5.93;70.10;100143.53;5090571;28;20030;-42
2023/01/29 09:50:06;;;;;;;;;;;;;;;5.62;69.73;100152.06;5090694;28;19940;-42
2023/01/29 09:52:38;;;;;;;;;;;;;;;5.79;69.74;100145.81;5090142;28;20327;-42
2023/01/29 09:55:26;;;;;;;;;;;;;;;6.06;68.97;100146.53;5089547;28;20343;-42
2023/01/29 09:57:51;;;;;;;;;;;;;;;5.64;69.64;100139.53;5089201;28;19920;-42
2023/01/29 10:00:35;;;;;;;;;;;;;;;5.63;69.94;100143.13;5089295;28;19969;-42
2023/01/29 10:03:00;;;;;;;;;;;;;;;5.76;69.65;100148.78;5089928;28;19912;-37
2023/01/29 10:05:29;;;;;;;;;;;;;;;6.02;68.11;100140.75;5089729;28;20007;-36
2023/01/29 10:08:12;;;;;;;;;;;;;;;5.99;68.88;100149.00;5090728;28;19919;-36
2023/01/29 10:11:10;;;;;;;;;;;;;;;5.90;68.54;100143.84;5091052;28;19916;-36
2023/01/29 10:13:44;;;;;;;;;;;;;;;5.68;69.76;100139.03;5089691;28;19942;-36
2023/01/29 10:16:17;;;;;;;;;;;;;;;5.42;70.01;100133.00;5091130;28;19965;-36
2023/01/29 10:18:42;;;;;;;;;;;;;;;5.85;69.50;100137.25;5090725;28;19927;-36
2023/01/29 10:21:26;;;;;;;;;;;;;;;5.74;68.75;100126.97;5090784;28;19992;-36
2023/01/29 10:23:58;;;;;;;;;;;;;;;5.81;69.01;100127.19;5090452;28;20019;-42
2023/01/29 10:26:25;;;;;;;;;;;;;;;6.10;67.88;100118.78;5090668;28;19953;-42
2023/01/29 10:28:51;;;;;;;;;;;;;;;6.03;67.67;100121.25;5093587;28;19912;-42
2023/01/29 10:31:19;;;;;;;;;;;;;;;6.25;67.53;100103.94;5092650;28;20440;-41
2023/01/29 10:33:48;;;;;;;;;;;;;;;6.12;67.90;100100.97;5092847;28;19935;-42
2023/01/29 10:36:20;;;;;;;;;;;;;;;5.78;68.68;100104.53;5093628;28;19919;-43
2023/01/29 10:38:46;;;;;;;;;;;;;;;6.51;66.69;100099.44;5093432;28;20006;-41
2023/01/29 10:41:15;;;;;;;;;;;;;;;6.92;65.25;100096.69;5093266;28;20344;-41
2023/01/29 10:43:43;;;;;;;;;;;;;;;6.74;64.83;100102.19;5093259;28;20290;-41
2023/01/29 10:46:11;;;;;;;;;;;;;;;6.63;64.94;100092.81;5093352;28;19912;-40
2023/01/29 10:48:43;;;;;;;;;;;;;;;6.55;66.01;100085.72;5093483;28;19912;-42
2023/01/29 10:51:13;;;;;;;;;;;;;;;6.19;66.12;100091.38;5093466;28;19940;-42
2023/01/29 10:53:52;;;;;;;;;;;;;;;6.46;65.30;100074.31;5093006;28;19912;-42
2023/01/29 10:56:36;;;;;;;;;;;;;;;6.18;66.27;100086.25;5093285;28;20330;-41
2023/01/29 10:59:25;;;;;;;;;;;;;;;6.40;65.88;100072.34;5092619;28;19968;-43
2023/01/29 11:01:55;;;;;;;;;;;;;;;6.40;65.54;100074.19;5092725;28;19995;-36
2023/01/29 11:04:21;;;;;;;;;;;;;;;6.62;63.87;100070.78;5092886;28;19973;-36
2023/01/29 11:06:48;;;;;;;;;;;;;;;6.67;63.95;100072.13;5092976;28;19916;-36
2023/01/29 11:09:25;;;;;;;;;;;;;;;6.87;64.62;100072.56;5092901;28;20304;-36
2023/01/29 11:11:53;;;;;;;;;;;;;;;6.71;64.04;100063.69;5092859;28;20272;-37
2023/01/29 11:14:23;;;;;;;;;;;;;;;7.21;62.23;100073.03;5093004;28;19969;-36
2023/01/29 11:16:49;;;;;;;;;;;;;;;7.58;61.01;100068.06;5092775;28;19916;-41
2023/01/29 11:19:15;;;;;;;;;;;;;;;7.12;62.22;100068.81;5090824;28;19924;-41
2023/01/29 11:21:57;;;;;;;;;;;;;;;6.81;62.87;100069.59;5092512;28;19912;-42
2023/01/29 11:24:23;;;;;;;;;;;;;;;6.47;63.52;100056.63;5092328;28;19960;-35
2023/01/29 11:26:50;;;;;;;;;;;;;;;6.44;63.92;100046.41;5092383;28;20042;-36
2023/01/29 11:29:34;;;;;;;;;;;;;;;6.86;63.54;100047.91;5092310;28;19919;-35
2023/01/29 11:32:02;;;;;;;;;;;;;;;7.43;61.01;100044.97;5092640;28;19923;-35
2023/01/29 11:34:29;;;;;;;;;;;;;;;6.90;62.77;100046.56;5091788;28;19951;-43
2023/01/29 11:36:59;;;;;;;;;;;;;;;7.30;61.26;100038.59;5091593;28;19912;-42
2023/01/29 11:39:26;;;;;;;;;;;;;;;7.47;60.84;100044.63;5091681;28;19995;-41
2023/01/29 11:42:02;;;;;;;;;;;;;;;7.61;60.42;100035.91;5091626;28;19951;-41
2023/01/29 11:44:31;;;;;;;;;;;;;;;7.60;60.33;100031.63;5091781;28;20599;-41
2023/01/29 11:47:06;;;;;;;;;;;;;;;7.44;60.27;100029.91;5091702;28;19911;-41
2023/01/29 11:49:33;;;;;;;;;;;;;;;7.14;61.30;100023.63;5090604;28;19973;-43
2023/01/29 11:52:01;;;;;;;;;;;;;;;7.62;59.50;100025.13;5092588;28;19912;-43
2023/01/29 11:54:30;;;;;;;;;;;;;;;7.25;60.58;100025.88;5092529;28;19939;-43
2023/01/29 11:56:56;;;;;;;;;;;;;;;7.65;59.79;100021.28;5092334;28;19912;-43
2023/01/29 11:59:38;;;;;;;;;;;;;;;7.49;59.15;100021.44;5092404;28;19961;-41
2023/01/29 12:02:25;;;;;;;;;;;;;;;7.54;59.38;100017.25;5092459;28;20018;-42
2023/01/29 12:04:51;;;;;;;;;;;;;;;7.23;59.57;100012.00;5092325;28;19995;-42
2023/01/29 12:07:17;;;;;;;;;;;;;;;7.73;58.32;100012.47;5092419;28;20348;-42
2023/01/29 12:10:12;;;;;;;;;;;;;;;7.52;58.19;100010.47;5092217;28;19943;-42
2023/01/29 12:12:40;;;;;;;;;;;;;;;7.44;58.51;99998.13;5091293;28;19919;-42
2023/01/29 12:15:15;;;;;;;;;;;;;;;7.58;58.25;100000.00;5092577;28;19915;-42
2023/01/29 12:17:42;;;;;;;;;;;;;;;7.76;57.50;100004.16;5091921;28;20349;-42
2023/01/29 12:20:13;;;;;;;;;;;;;;;7.83;57.70;100003.28;5091663;28;19924;-42
2023/01/29 12:22:39;;;;;;;;;;;;;;;7.77;57.65;100001.34;5091830;28;19912;-42
2023/01/29 12:25:10;;;;;;;;;;;;;;;7.13;59.43;99995.53;5091525;28;19942;-41
2023/01/29 12:27:35;;;;;;;;;;;;;;;7.51;58.12;99993.78;5091606;28;20004;-41
2023/01/29 12:30:00;;;;;;;;;;;;;;;7.81;57.53;99993.88;5091782;28;20006;-41
2023/01/29 12:32:29;;;;;;;;;;;;;;;7.66;57.94;99985.88;5090416;28;19912;-41
2023/01/29 12:35:00;;;;;;;;;;;;;;;7.29;58.18;99987.50;5091683;28;20006;-41
2023/01/29 12:37:31;;;;;;;;;;;;;;;7.18;57.71;99982.59;5091628;28;20417;-42
2023/01/29 12:39:56;;;;;;;;;;;;;;;7.24;57.37;99979.25;5090683;28;19916;-42
2023/01/29 12:42:23;;;;;;;;;;;;;;;7.11;58.04;99977.16;5090794;28;19981;-43
2023/01/29 12:45:00;;;;;;;;;;;;;;;7.45;57.38;99983.91;5090935;28;20563;-43
2023/01/29 12:47:29;;;;;;;;;;;;;;;7.80;56.30;99981.59;5091469;28;19919;-42
2023/01/29 12:49:55;;;;;;;;;;;;;;;7.60;56.11;99987.41;5090899;28;19938;-42
2023/01/29 12:52:35;;;;;;;;;;;;;;;7.61;56.46;99985.56;5091206;28;19912;-42
2023/01/29 12:55:07;;;;;;;;;;;;;;;7.41;57.34;99979.97;5091213;28;19927;-43
2023/01/29 12:57:43;;;;;;;;;;;;;;;7.07;57.81;99983.00;5091497;28;20339;-43
2023/01/29 13:00:12;;;;;;;;;;;;;;;7.41;56.99;99987.91;5091334;28;19922;-42
2023/01/29 13:02:56;;;;;;;;;;;;;;;7.48;57.28;99988.00;5090954;28;19916;-41
2023/01/29 13:05:37;;;;;;;;;;;;;;;7.79;56.07;99978.16;5091192;28;19934;-41
2023/01/29 13:08:06;;;;;;;;;;;;;;;7.72;55.76;99982.50;5091395;28;19912;-42
2023/01/29 13:10:36;;;;;;;;;;;;;;;7.88;55.85;99978.91;5091506;28;19935;-42
2023/01/29 13:13:09;;;;;;;;;;;;;;;7.55;56.80;99983.66;5091269;28;19912;-42
2023/01/29 13:15:39;;;;;;;;;;;;;;;7.52;56.73;99984.00;5090990;28;20345;-41
2023/01/29 13:18:28;;;;;;;;;;;;;;;7.69;56.17;99985.53;5090864;28;19919;-42
2023/01/29 13:20:54;;;;;;;;;;;;;;;7.80;55.65;99992.22;5090623;28;20289;-36
2023/01/29 13:23:20;;;;;;;;;;;;;;;7.77;55.73;99988.09;5090615;28;20038;-36
2023/01/29 13:25:49;;;;;;;;;;;;;;;7.56;55.59;99983.47;5090704;28;19912;-36